• Join FlightAware (Why Join?)
  • Login
  • US Flag 
10:07AM EDT


 

Airport Tracker/Info


-or-


 

Live Flight TrackerFlight Track Log ✈ N2852N ✈ 02-May-2012 ✈ KGPT - KNEW

Flight Track Log - Related Links

Times and Time Zones

All times are in EDT time to prevent confusion due to time zone crossing. See the N2852N flight status page for this flight to view local times or setup timezone preferences in your user account.

Time Position Orientation Groundspeed Altitude Reporting Facility
EDT Latitude Longitude Course Direction KTS MPH feet Rate Location/Type
06:10PM 30.3989 -89.0917 246° West  Level FlightAware Approximate
06:11PM 30.3815 -89.1362 246° West  Level FlightAware Approximate
06:12PM 30.3640 -89.1808 246° West  Level FlightAware Approximate
06:13PM 30.3466 -89.2254 246° West  Level FlightAware Approximate
06:14PM 30.3235 -89.2628 250° West  Level FlightAware Approximate
06:15PM 30.2914 -89.3664 248° West 225 259 6,000  Level Houston Center
06:16PM 30.2714 -89.4247 244° Southwest 180 207 6,000 -360 Level Houston Center
06:17PM 30.2514 -89.4731 248° West 164 189 5,300 -900 Descending Houston Center
06:18PM 30.2314 -89.5314 250° West 161 185 4,100 -720 Descending Houston Center
06:19PM 30.2194 -89.5700 245° Southwest 152 175 3,900 -660 Descending Houston Center
06:20PM 30.1975 -89.6256 247° West 197 227 3,000 -480 Descending Houston Center
06:21PM 30.1775 -89.6789 248° West 189 217 3,000 -240 Level Houston Center
06:22PM 30.1594 -89.7297 248° West 170 196 2,600 -480 Descending Houston Center
06:23PM 30.1372 -89.7925 246° West 187 215 2,000 -300 Descending Houston Center
06:24PM 30.1211 -89.8336 251° West 174 200 2,000  Level Houston Center
06:25PM 30.1050 -89.8869 255° West 160 184 2,000  Level Houston Center
06:26PM 30.0953 -89.9278 252° West 136 157 2,000 -420 Level Houston Center
06:27PM 30.0853 -89.9639 259° West 118 136 1,200 -660 Descending Houston Center
06:28PM 30.0794 -89.9978 256° West 110 127 700 -300 Descending Houston Center
06:29PM 30.0733 -90.0267 256° West 103 119 700  Level Houston Center